createdAt,value
2018-02-22T00:00:42.725Z,31.87
2018-02-22T00:03:22.356Z,27.58
2018-02-22T00:06:01.253Z,27.95
2018-02-22T00:08:42.286Z,30.10
2018-02-22T00:11:17.064Z,27.85
2018-02-22T00:13:59.977Z,31.12
2018-02-22T00:16:38.524Z,28.65
2018-02-22T00:19:17.227Z,31.05
2018-02-22T00:21:57.906Z,31.37
2018-02-22T00:24:40.351Z,29.60
2018-02-22T00:27:20.602Z,30.25
2018-02-22T00:29:59.649Z,30.80
2018-02-22T00:32:37.548Z,24.58
2018-02-22T00:35:17.807Z,30.52
2018-02-22T00:37:56.633Z,30.98
2018-02-22T00:40:32.212Z,27.77
2018-02-22T00:43:09.362Z,26.67
2018-02-22T00:45:48.357Z,26.10
2018-02-22T00:48:28.238Z,28.98
2018-02-22T00:51:04.478Z,30.90
2018-02-22T00:53:37.890Z,31.40
2018-02-22T00:56:13.334Z,31.73
2018-02-22T00:58:52.436Z,29.55
2018-02-22T01:01:30.912Z,29.17
2018-02-22T01:04:08.924Z,29.60
2018-02-22T01:06:48.358Z,30.12
2018-02-22T01:09:27.166Z,28.02
2018-02-22T01:12:07.325Z,30.20
2018-02-22T01:14:46.674Z,30.42
2018-02-22T01:17:26.024Z,30.23
2018-02-22T01:20:04.972Z,28.52
2018-02-22T01:22:44.508Z,30.30
2018-02-22T01:25:23.021Z,25.67
2018-02-22T01:28:01.231Z,29.52
2018-02-22T01:30:41.953Z,28.65
2018-02-22T01:33:21.568Z,28.80
2018-02-22T01:36:01.869Z,29.83
2018-02-22T01:38:42.539Z,30.77
2018-02-22T01:41:24.739Z,28.15
2018-02-22T01:44:08.241Z,28.75
2018-02-22T01:46:49.373Z,32.03
2018-02-22T01:49:29.112Z,30.02
2018-02-22T01:52:07.399Z,29.12
2018-02-22T01:54:40.936Z,27.58
2018-02-22T01:57:20.471Z,30.83
2018-02-22T01:59:59.275Z,28.55
2018-02-22T02:02:34.390Z,29.63
2018-02-22T02:05:13.497Z,28.23
2018-02-22T02:07:54.948Z,30.50
2018-02-22T02:10:34.376Z,28.65
2018-02-22T02:13:13.656Z,30.27
2018-02-22T02:15:52.483Z,30.25
2018-02-22T02:18:33.222Z,26.50
2018-02-22T02:21:10.782Z,28.65
2018-02-22T02:23:48.022Z,29.85
2018-02-22T02:26:27.258Z,30.10
2018-02-22T02:29:05.275Z,29.50
2018-02-22T02:31:45.916Z,26.15
2018-02-22T02:34:25.181Z,30.67
2018-02-22T02:37:03.271Z,31.00
2018-02-22T02:39:43.251Z,30.05
2018-02-22T02:42:21.633Z,27.90
2018-02-22T02:44:57.615Z,28.95
2018-02-22T02:47:36.382Z,29.87
2018-02-22T02:50:15.429Z,28.42
2018-02-22T02:52:58.616Z,28.27
2018-02-22T02:55:39.066Z,27.50
2018-02-22T02:58:18.123Z,26.75
2018-02-22T03:00:57.812Z,25.95
2018-02-22T03:03:37.029Z,28.40
2018-02-22T03:06:15.918Z,27.80
2018-02-22T03:08:53.681Z,26.12
2018-02-22T03:11:31.465Z,27.05
2018-02-22T03:14:11.244Z,29.20
2018-02-22T03:16:49.628Z,31.20
2018-02-22T03:19:29.498Z,30.50
2018-02-22T03:22:08.512Z,27.90
2018-02-22T03:24:48.218Z,29.08
2018-02-22T03:27:27.026Z,27.87
2018-02-22T03:30:05.585Z,25.73
2018-02-22T03:32:38.204Z,26.48
2018-02-22T03:35:16.712Z,26.33
2018-02-22T03:37:54.202Z,26.83
2018-02-22T03:40:32.091Z,28.48
2018-02-22T03:43:11.522Z,26.55
2018-02-22T03:45:44.713Z,29.70
2018-02-22T03:48:24.867Z,27.65
2018-02-22T03:50:59.003Z,26.65
2018-02-22T03:53:37.378Z,26.92
2018-02-22T03:56:19.420Z,24.92
2018-02-22T03:58:58.321Z,28.98
2018-02-22T04:01:39.728Z,26.98
2018-02-22T04:04:17.916Z,28.50
2018-02-22T04:06:56.024Z,28.15
2018-02-22T04:09:37.697Z,28.62
2018-02-22T04:12:17.295Z,27.75
2018-02-22T04:14:55.612Z,26.67
2018-02-22T04:17:36.515Z,28.27
2018-02-22T04:20:14.468Z,25.48
2018-02-22T04:22:54.934Z,25.98
2018-02-22T04:25:34.120Z,28.27
2018-02-22T04:28:12.994Z,28.85
2018-02-22T04:30:51.994Z,29.33
2018-02-22T04:33:31.454Z,27.40
2018-02-22T04:36:10.770Z,26.45
2018-02-22T04:38:49.881Z,28.05
2018-02-22T04:41:27.237Z,28.67
2018-02-22T04:44:06.133Z,28.65
2018-02-22T04:46:46.485Z,29.15
2018-02-22T04:49:25.593Z,28.92
2018-02-22T04:52:04.724Z,28.67
2018-02-22T04:54:44.061Z,29.33
2018-02-22T04:57:21.147Z,30.50
2018-02-22T04:59:54.670Z,27.10
2018-02-22T05:02:27.283Z,28.83
2018-02-22T05:05:06.857Z,27.27
2018-02-22T05:07:46.789Z,28.58
2018-02-22T05:10:20.735Z,29.63
2018-02-22T05:12:59.022Z,29.10
2018-02-22T05:15:37.625Z,27.27
2018-02-22T05:18:14.826Z,27.40
2018-02-22T05:20:53.719Z,25.62
2018-02-22T05:23:30.887Z,27.10
2018-02-22T05:26:10.185Z,26.70
2018-02-22T05:28:47.104Z,28.52
2018-02-22T05:31:28.744Z,28.38
2018-02-22T05:34:11.036Z,26.27
2018-02-22T05:36:51.890Z,25.25
2018-02-22T05:39:31.717Z,27.08
2018-02-22T05:42:10.979Z,25.25
2018-02-22T05:44:48.310Z,27.37
2018-02-22T05:47:28.695Z,25.88
2018-02-22T05:50:08.923Z,27.17
2018-02-22T05:52:46.816Z,28.27
2018-02-22T05:55:23.618Z,26.05
2018-02-22T05:58:00.999Z,24.83
2018-02-22T06:00:38.116Z,24.65
2018-02-22T06:03:16.589Z,26.08
2018-02-22T06:05:56.874Z,25.73
2018-02-22T06:08:29.888Z,26.20
2018-02-22T06:11:06.974Z,24.87
2018-02-22T06:13:40.594Z,27.50
2018-02-22T06:16:20.040Z,25.35
2018-02-22T06:18:55.239Z,24.63
2018-02-22T06:21:29.381Z,25.35
2018-02-22T06:24:08.715Z,25.95
2018-02-22T06:26:48.231Z,26.65
2018-02-22T06:29:27.128Z,25.62
2018-02-22T06:32:06.988Z,26.92
2018-02-22T06:34:40.725Z,25.60
2018-02-22T06:37:15.869Z,24.80
2018-02-22T06:39:53.535Z,25.60
2018-02-22T06:42:31.979Z,27.37
2018-02-22T06:45:11.481Z,25.80
2018-02-22T06:47:48.839Z,25.17
2018-02-22T06:50:27.963Z,24.92
2018-02-22T06:53:06.524Z,24.42
2018-02-22T06:55:46.599Z,26.75
2018-02-22T06:58:19.596Z,24.85
2018-02-22T07:00:57.603Z,27.30
2018-02-22T07:03:36.523Z,23.80
2018-02-22T07:06:09.097Z,24.25
2018-02-22T07:08:47.827Z,25.23
2018-02-22T07:11:21.056Z,25.62
2018-02-22T07:14:00.158Z,26.52
2018-02-22T07:16:38.975Z,26.90
2018-02-22T07:19:15.935Z,24.45
2018-02-22T07:21:56.050Z,26.23
2018-02-22T07:24:35.248Z,24.20
2018-02-22T07:27:13.563Z,24.87
2018-02-22T07:29:52.624Z,24.10
2018-02-22T07:32:35.038Z,25.02
2018-02-22T07:35:16.137Z,25.15
2018-02-22T07:37:54.556Z,24.33
2018-02-22T07:40:34.551Z,27.60
2018-02-22T07:43:12.970Z,25.58
2018-02-22T07:45:47.571Z,25.60
2018-02-22T07:48:28.282Z,25.83
2018-02-22T07:51:06.767Z,22.55
2018-02-22T07:53:47.669Z,25.83
2018-02-22T07:56:23.026Z,21.90
2018-02-22T07:59:01.300Z,24.70
2018-02-22T08:01:39.682Z,22.90
2018-02-22T08:04:22.310Z,22.92
2018-02-22T08:07:02.643Z,21.80
2018-02-22T08:09:43.517Z,25.02
2018-02-22T08:12:20.902Z,26.10
2018-02-22T08:15:03.964Z,21.55
2018-02-22T08:17:44.824Z,21.83
2018-02-22T08:20:20.714Z,24.63
2018-02-22T08:23:04.201Z,24.37
2018-02-22T08:25:44.364Z,22.05
2018-02-22T08:28:24.696Z,22.73
2018-02-22T08:31:03.060Z,20.42
2018-02-22T08:33:40.734Z,21.75
2018-02-22T08:36:23.617Z,21.30
2018-02-22T08:39:05.928Z,21.27
2018-02-22T08:41:49.016Z,21.70
2018-02-22T08:44:22.797Z,21.60
2018-02-22T08:46:58.665Z,20.77
2018-02-22T08:49:38.071Z,22.08
2018-02-22T08:52:15.696Z,21.02
2018-02-22T08:54:50.996Z,20.00
2018-02-22T08:57:32.674Z,20.27
2018-02-22T09:00:15.724Z,18.73
2018-02-22T09:02:53.190Z,19.02
2018-02-22T09:05:35.476Z,21.23
2018-02-22T09:08:17.942Z,20.42
2018-02-22T09:10:57.877Z,18.90
2018-02-22T09:13:40.960Z,20.62
2018-02-22T09:16:24.879Z,19.00
2018-02-22T09:19:09.094Z,21.20
2018-02-22T09:21:49.528Z,21.42
2018-02-22T09:24:32.695Z,20.08
2018-02-22T09:27:10.585Z,21.58
2018-02-22T09:29:47.755Z,21.25
2018-02-22T09:32:28.336Z,19.25
2018-02-22T09:35:11.064Z,18.60
2018-02-22T09:37:52.417Z,19.75
2018-02-22T09:40:30.191Z,20.02
2018-02-22T09:43:09.238Z,19.73
2018-02-22T09:45:48.127Z,18.33
2018-02-22T09:48:26.625Z,19.20
2018-02-22T09:51:06.133Z,18.73
2018-02-22T09:53:49.823Z,19.02
2018-02-22T09:56:31.953Z,19.87
2018-02-22T09:59:09.288Z,20.02
2018-02-22T10:01:48.815Z,18.62
2018-02-22T10:04:29.120Z,18.35
2018-02-22T10:07:06.077Z,19.40
2018-02-22T10:09:46.220Z,18.27
2018-02-22T10:12:27.717Z,17.17
2018-02-22T10:15:09.167Z,16.55
2018-02-22T10:17:47.861Z,17.85
2018-02-22T10:20:26.631Z,18.27
2018-02-22T10:23:07.704Z,18.50
2018-02-22T10:25:52.053Z,16.62
2018-02-22T10:28:34.233Z,18.25
2018-02-22T10:31:14.461Z,18.12
2018-02-22T10:34:00.095Z,18.67
2018-02-22T10:36:33.507Z,18.73
2018-02-22T10:39:24.432Z,17.65
2018-02-22T10:42:04.244Z,14.38
2018-02-22T10:44:43.624Z,16.70
2018-02-22T10:47:23.045Z,19.25
2018-02-22T10:50:01.754Z,16.80
2018-02-22T10:52:35.818Z,17.45
2018-02-22T10:55:14.405Z,16.87
2018-02-22T10:57:54.746Z,17.45
2018-02-22T11:00:36.877Z,16.48
2018-02-22T11:03:10.215Z,15.65
2018-02-22T11:05:47.808Z,17.40
2018-02-22T11:08:31.476Z,17.25
2018-02-22T11:11:08.892Z,15.18
2018-02-22T11:13:46.467Z,16.45
2018-02-22T11:16:27.890Z,18.67
2018-02-22T11:19:01.732Z,16.30
2018-02-22T11:21:41.320Z,14.55
2018-02-22T11:24:20.152Z,15.70
2018-02-22T11:26:57.901Z,16.12
2018-02-22T11:29:35.572Z,14.13
2018-02-22T11:32:17.003Z,15.50
2018-02-22T11:34:55.572Z,14.05
2018-02-22T11:37:38.188Z,15.32
2018-02-22T11:40:20.137Z,15.25
2018-02-22T11:43:02.295Z,14.80
2018-02-22T11:45:37.729Z,13.20
2018-02-22T11:48:14.821Z,13.23
2018-02-22T11:50:56.076Z,13.05
2018-02-22T11:53:37.652Z,12.68
2018-02-22T11:56:17.378Z,12.65
2018-02-22T11:59:00.511Z,13.90
2018-02-22T12:01:40.229Z,14.90
2018-02-22T12:04:19.375Z,13.30
2018-02-22T12:06:57.502Z,11.90
2018-02-22T12:09:39.785Z,14.43
2018-02-22T12:12:15.948Z,12.05
2018-02-22T12:14:54.067Z,12.85
2018-02-22T12:17:34.414Z,11.98
2018-02-22T12:20:11.468Z,13.07
2018-02-22T12:22:46.348Z,12.55
2018-02-22T12:25:27.559Z,12.48
2018-02-22T12:28:06.282Z,10.43
2018-02-22T12:30:46.377Z,11.48
2018-02-22T12:33:27.374Z,8.55
2018-02-22T12:36:12.841Z,10.52
2018-02-22T12:38:54.572Z,10.98
2018-02-22T12:41:36.736Z,10.88
2018-02-22T12:44:19.483Z,12.15
2018-02-22T12:46:58.539Z,13.27
2018-02-22T12:49:34.874Z,12.02
2018-02-22T12:52:10.682Z,12.10
2018-02-22T12:54:53.103Z,9.88
2018-02-22T12:57:36.679Z,12.30
2018-02-22T13:00:21.186Z,10.15
2018-02-22T13:03:03.061Z,10.60
2018-02-22T13:05:46.053Z,9.80
2018-02-22T13:08:26.897Z,11.40
2018-02-22T13:11:00.936Z,11.10
2018-02-22T13:13:35.371Z,10.93
2018-02-22T13:16:15.361Z,12.07
2018-02-22T13:19:01.095Z,11.05
2018-02-22T13:21:45.856Z,12.05
2018-02-22T13:24:27.728Z,10.30
2018-02-22T13:27:12.725Z,12.05
2018-02-22T13:29:57.547Z,10.95
2018-02-22T13:32:41.438Z,11.07
2018-02-22T13:35:15.972Z,9.40
2018-02-22T13:38:00.941Z,10.25
2018-02-22T13:40:43.505Z,10.65
2018-02-22T13:43:27.995Z,11.40
2018-02-22T13:46:11.641Z,11.10
2018-02-22T13:49:00.663Z,10.68
2018-02-22T13:51:46.476Z,10.63
2018-02-22T13:54:31.513Z,10.85
2018-02-22T13:57:20.063Z,11.60
2018-02-22T14:00:01.052Z,11.12
2018-02-22T14:02:35.566Z,11.20
2018-02-22T14:05:13.371Z,10.65
2018-02-22T14:07:50.767Z,11.20
2018-02-22T14:10:24.985Z,11.32
2018-02-22T14:13:05.634Z,11.35
2018-02-22T14:15:48.895Z,10.65
2018-02-22T14:18:31.447Z,11.60
2018-02-22T14:21:10.177Z,11.20
2018-02-22T14:23:46.747Z,11.90
2018-02-22T14:26:25.369Z,10.90
2018-02-22T14:29:07.677Z,9.25
2018-02-22T14:31:41.519Z,12.23
2018-02-22T14:34:21.711Z,10.27
2018-02-22T14:37:03.642Z,10.93
2018-02-22T14:39:41.213Z,12.70
2018-02-22T14:42:22.587Z,11.23
2018-02-22T14:45:00.016Z,9.70
2018-02-22T14:47:45.197Z,10.27
2018-02-22T14:50:25.759Z,10.55
2018-02-22T14:53:00.266Z,11.00
2018-02-22T14:55:40.469Z,9.25
2018-02-22T14:58:20.070Z,11.65
2018-02-22T15:01:02.865Z,8.88
2018-02-22T15:03:42.772Z,11.30
2018-02-22T15:06:17.912Z,10.85
2018-02-22T15:08:59.500Z,10.20
2018-02-22T15:11:42.404Z,11.00
2018-02-22T15:14:16.651Z,10.85
2018-02-22T15:16:55.908Z,10.32
2018-02-22T15:19:38.469Z,11.23
2018-02-22T15:22:22.324Z,10.48
2018-02-22T15:24:57.863Z,10.88
2018-02-22T15:27:40.632Z,11.12
2018-02-22T15:30:25.505Z,11.52
2018-02-22T15:33:10.206Z,11.00
2018-02-22T15:35:46.675Z,12.32
2018-02-22T15:38:25.311Z,11.88
2018-02-22T15:41:04.295Z,11.10
2018-02-22T15:43:45.574Z,12.27
2018-02-22T15:46:21.522Z,12.10
2018-02-22T15:49:01.580Z,9.40
2018-02-22T15:51:42.715Z,9.93
2018-02-22T15:54:21.508Z,10.95
2018-02-22T15:57:05.967Z,13.00
2018-02-22T15:59:50.098Z,11.95
2018-02-22T16:02:34.590Z,11.38
2018-02-22T16:05:20.415Z,12.13
2018-02-22T16:08:03.393Z,12.00
2018-02-22T16:10:42.069Z,12.93
2018-02-22T16:13:24.386Z,12.13
2018-02-22T16:16:01.491Z,12.63
2018-02-22T16:18:40.320Z,12.48
2018-02-22T16:21:18.672Z,13.50
2018-02-22T16:23:55.569Z,11.70
2018-02-22T16:26:37.886Z,12.50
2018-02-22T16:29:12.570Z,13.98
2018-02-22T16:31:48.947Z,10.82
2018-02-22T16:34:34.091Z,13.25
2018-02-22T16:37:14.633Z,13.13
2018-02-22T16:39:56.156Z,12.70
2018-02-22T16:42:38.312Z,12.05
2018-02-22T16:45:13.910Z,13.73
2018-02-22T16:47:51.412Z,11.52
2018-02-22T16:50:34.735Z,12.73
2018-02-22T16:53:17.960Z,12.73
2018-02-22T16:56:03.435Z,12.70
2018-02-22T16:58:45.650Z,13.13
2018-02-22T17:01:27.777Z,13.20
2018-02-22T17:04:11.339Z,15.57
2018-02-22T17:06:51.199Z,13.00
2018-02-22T17:09:29.593Z,13.10
2018-02-22T17:12:09.792Z,13.65
2018-02-22T17:14:54.478Z,11.70
2018-02-22T17:17:41.221Z,12.70
2018-02-22T17:20:15.221Z,12.07
2018-02-22T17:22:55.653Z,14.18
2018-02-22T17:25:36.088Z,13.43
2018-02-22T17:28:13.174Z,12.57
2018-02-22T17:30:55.187Z,13.90
2018-02-22T17:33:39.275Z,16.02
2018-02-22T17:36:20.851Z,15.15
2018-02-22T17:39:03.337Z,16.40
2018-02-22T17:41:41.078Z,14.35
2018-02-22T17:44:25.527Z,14.48
2018-02-22T17:47:08.040Z,16.50
2018-02-22T17:49:41.971Z,18.77
2018-02-22T17:52:19.609Z,15.88
2018-02-22T17:54:58.916Z,16.17
2018-02-22T17:57:32.886Z,15.23
2018-02-22T18:00:09.143Z,15.60
2018-02-22T18:02:52.077Z,17.35
2018-02-22T18:05:30.752Z,15.98
2018-02-22T18:08:09.396Z,16.40
2018-02-22T18:10:44.791Z,16.67
2018-02-22T18:13:23.667Z,16.83
2018-02-22T18:16:03.196Z,18.52
2018-02-22T18:18:46.609Z,16.70
2018-02-22T18:21:28.262Z,18.95
2018-02-22T18:24:02.946Z,19.30
2018-02-22T18:26:45.539Z,19.85
2018-02-22T18:29:25.959Z,18.70
2018-02-22T18:32:07.674Z,20.08
2018-02-22T18:34:48.738Z,19.87
2018-02-22T18:37:26.688Z,19.70
2018-02-22T18:40:05.101Z,20.25
2018-02-22T18:42:48.566Z,20.23
2018-02-22T18:45:28.643Z,19.70
2018-02-22T18:48:01.381Z,20.35
2018-02-22T18:50:42.079Z,18.33
2018-02-22T18:53:20.456Z,18.90
2018-02-22T18:56:06.743Z,20.30
2018-02-22T18:58:46.005Z,18.27
2018-02-22T19:01:25.878Z,19.55
2018-02-22T19:04:07.930Z,21.12
2018-02-22T19:06:47.342Z,18.55
2018-02-22T19:09:25.185Z,19.40
2018-02-22T19:12:03.684Z,19.20
2018-02-22T19:14:46.571Z,20.48
2018-02-22T19:17:29.118Z,19.58
2018-02-22T19:20:03.808Z,21.00
2018-02-22T19:22:43.030Z,20.37
2018-02-22T19:25:22.248Z,18.87
2018-02-22T19:28:04.939Z,18.33
2018-02-22T19:30:48.496Z,19.40
2018-02-22T19:33:26.328Z,20.45
2018-02-22T19:36:07.900Z,19.60
2018-02-22T19:38:46.474Z,19.25
2018-02-22T19:41:28.239Z,19.00
2018-02-22T19:44:03.294Z,19.45
2018-02-22T19:46:43.664Z,19.85
2018-02-22T19:49:21.649Z,19.85
2018-02-22T19:51:58.258Z,18.62
2018-02-22T19:54:38.100Z,19.62
2018-02-22T19:57:15.820Z,18.77
2018-02-22T19:59:49.989Z,19.77
2018-02-22T20:02:31.128Z,20.00
2018-02-22T20:05:10.873Z,17.98
2018-02-22T20:07:51.261Z,18.37
2018-02-22T20:10:31.776Z,18.60
2018-02-22T20:13:11.481Z,20.60
2018-02-22T20:15:54.714Z,20.62
2018-02-22T20:18:28.936Z,19.65
2018-02-22T20:21:10.165Z,18.60
2018-02-22T20:23:45.495Z,19.67
2018-02-22T20:26:23.732Z,19.45
2018-02-22T20:29:09.221Z,19.80
2018-02-22T20:31:50.651Z,19.50
2018-02-22T20:34:26.940Z,20.10
2018-02-22T20:37:05.390Z,18.15
2018-02-22T20:39:46.773Z,17.77
2018-02-22T20:42:26.577Z,20.27
2018-02-22T20:45:05.326Z,19.85
2018-02-22T20:47:44.378Z,18.98
2018-02-22T20:50:22.412Z,20.60
2018-02-22T20:53:04.846Z,19.23
2018-02-22T20:55:47.109Z,17.77
2018-02-22T20:58:28.856Z,17.77
2018-02-22T21:01:09.011Z,18.58
2018-02-22T21:03:44.867Z,16.85
2018-02-22T21:06:27.231Z,18.20
2018-02-22T21:09:10.220Z,16.98
2018-02-22T21:11:47.783Z,16.92
2018-02-22T21:14:25.539Z,17.12
2018-02-22T21:17:05.207Z,17.77
2018-02-22T21:19:43.484Z,17.45
2018-02-22T21:22:20.016Z,18.33
2018-02-22T21:24:53.662Z,17.60
2018-02-22T21:27:33.078Z,19.45
2018-02-22T21:30:16.667Z,15.07
2018-02-22T21:32:58.046Z,16.00
2018-02-22T21:35:36.844Z,18.05
2018-02-22T21:38:17.937Z,17.40
2018-02-22T21:40:59.540Z,17.17
2018-02-22T21:43:41.743Z,18.42
2018-02-22T21:46:19.804Z,16.90
2018-02-22T21:48:58.998Z,18.02
2018-02-22T21:51:38.029Z,17.60
2018-02-22T21:54:18.467Z,18.02
2018-02-22T21:56:58.051Z,17.08
2018-02-22T21:59:32.136Z,15.15
2018-02-22T22:02:11.688Z,16.62
2018-02-22T22:04:52.261Z,15.70
2018-02-22T22:07:31.363Z,16.30
2018-02-22T22:10:11.819Z,17.65
2018-02-22T22:12:49.418Z,17.35
2018-02-22T22:15:28.353Z,16.17
2018-02-22T22:18:08.477Z,17.83
2018-02-22T22:20:45.818Z,16.30
2018-02-22T22:23:24.738Z,16.95
2018-02-22T22:26:09.108Z,18.58
2018-02-22T22:28:52.287Z,16.85
2018-02-22T22:31:25.844Z,16.90
2018-02-22T22:34:05.654Z,15.07
2018-02-22T22:36:44.833Z,16.73
2018-02-22T22:39:23.003Z,16.05
2018-02-22T22:41:56.716Z,18.67
2018-02-22T22:44:37.268Z,16.52
2018-02-22T22:47:19.027Z,16.92
2018-02-22T22:49:59.872Z,15.55
2018-02-22T22:52:42.253Z,15.35
2018-02-22T22:55:21.696Z,15.38
2018-02-22T22:58:00.094Z,17.15
2018-02-22T23:00:38.056Z,15.90
2018-02-22T23:03:23.436Z,16.33
2018-02-22T23:06:09.554Z,19.77
2018-02-22T23:08:51.998Z,15.95
2018-02-22T23:11:34.396Z,16.02
2018-02-22T23:14:15.590Z,16.35
2018-02-22T23:16:56.823Z,19.27
2018-02-22T23:19:40.458Z,18.83
2018-02-22T23:22:23.158Z,16.60
2018-02-22T23:24:58.775Z,15.40
2018-02-22T23:30:27.786Z,17.37
2018-02-22T23:33:07.052Z,18.58
2018-02-22T23:35:47.052Z,19.00
2018-02-22T23:38:25.409Z,17.85
2018-02-22T23:41:09.445Z,18.95
2018-02-22T23:43:49.045Z,18.37
2018-02-22T23:46:27.791Z,18.30
2018-02-22T23:49:05.141Z,17.73
2018-02-22T23:51:47.222Z,18.80
2018-02-22T23:54:27.179Z,19.42
2018-02-22T23:57:07.668Z,20.58
2018-02-22T23:59:47.189Z,18.85
